createdAt,value
2022-12-08T00:02:04.040Z,53.85
2022-12-08T00:04:30.705Z,54.33
2022-12-08T00:06:57.362Z,54.24
2022-12-08T00:09:25.555Z,54.24
2022-12-08T00:11:52.103Z,54.65
2022-12-08T00:14:20.861Z,55.33
2022-12-08T00:16:47.331Z,54.79
2022-12-08T00:19:13.733Z,55.28
2022-12-08T00:21:40.140Z,55.12
2022-12-08T00:24:06.573Z,55.26
2022-12-08T00:26:32.961Z,55.16
2022-12-08T00:28:59.350Z,55.34
2022-12-08T00:31:25.807Z,55.03
2022-12-08T00:33:52.239Z,54.27
2022-12-08T00:36:18.831Z,53.86
2022-12-08T00:38:45.301Z,54.11
2022-12-08T00:41:11.625Z,53.51
2022-12-08T00:43:38.053Z,54.11
2022-12-08T00:46:04.456Z,54.46
2022-12-08T00:48:30.831Z,53.64
2022-12-08T00:50:57.147Z,54.45
2022-12-08T00:53:23.499Z,54.41
2022-12-08T00:55:49.926Z,54.29
2022-12-08T00:58:16.367Z,53.83
2022-12-08T01:00:42.913Z,54.63
2022-12-08T01:03:09.461Z,55.17
2022-12-08T01:05:36.308Z,55.25
2022-12-08T01:08:02.747Z,55.29
2022-12-08T01:10:29.240Z,55.28
2022-12-08T01:12:55.624Z,56.17
2022-12-08T01:15:21.978Z,56.48
2022-12-08T01:17:48.325Z,57.48
2022-12-08T01:20:14.740Z,57.90
2022-12-08T01:22:41.091Z,58.01
2022-12-08T01:25:07.434Z,58.02
2022-12-08T01:27:33.865Z,57.74
2022-12-08T01:30:00.251Z,57.98
2022-12-08T01:32:26.666Z,57.51
2022-12-08T01:34:53.020Z,57.70
2022-12-08T01:37:19.414Z,58.06
2022-12-08T01:39:45.828Z,57.23
2022-12-08T01:42:12.272Z,57.13
2022-12-08T01:44:38.632Z,57.51
2022-12-08T01:47:05.025Z,57.32
2022-12-08T01:49:32.680Z,57.09
2022-12-08T01:51:59.050Z,56.65
2022-12-08T01:54:25.480Z,57.50
2022-12-08T01:56:52.776Z,57.73
2022-12-08T01:59:21.525Z,58.02
2022-12-08T02:01:47.958Z,58.87
2022-12-08T02:04:14.398Z,60.18
2022-12-08T02:06:40.759Z,59.67
2022-12-08T02:09:07.120Z,59.27
2022-12-08T02:11:33.527Z,59.13
2022-12-08T02:13:59.929Z,58.89
2022-12-08T02:16:26.388Z,59.55
2022-12-08T02:19:14.813Z,59.43
2022-12-08T02:21:39.397Z,59.78
2022-12-08T02:24:11.849Z,58.94
2022-12-08T02:26:38.180Z,58.93
2022-12-08T02:29:04.542Z,58.20
2022-12-08T02:31:30.968Z,57.74
2022-12-08T02:33:57.365Z,57.72
2022-12-08T02:36:23.922Z,57.52
2022-12-08T02:38:50.279Z,57.74
2022-12-08T02:41:16.613Z,57.25
2022-12-08T02:43:43.057Z,58.27
2022-12-08T02:46:09.432Z,57.51
2022-12-08T02:48:37.930Z,57.42
2022-12-08T02:51:04.359Z,56.97
2022-12-08T02:53:30.915Z,57.24
2022-12-08T02:55:57.268Z,57.04
2022-12-08T02:58:23.688Z,57.37
2022-12-08T03:00:50.216Z,57.56
2022-12-08T03:03:16.686Z,57.21
2022-12-08T03:05:43.019Z,57.36
2022-12-08T03:08:09.482Z,58.90
2022-12-08T03:10:35.865Z,59.64
2022-12-08T03:13:02.244Z,59.45
2022-12-08T03:15:28.655Z,58.99
2022-12-08T03:17:55.060Z,59.02
2022-12-08T03:20:21.399Z,59.16
2022-12-08T03:22:47.783Z,59.41
2022-12-08T03:25:14.202Z,59.26
2022-12-08T03:27:40.561Z,59.54
2022-12-08T03:30:07.145Z,59.78
2022-12-08T03:32:33.771Z,59.61
2022-12-08T03:35:00.166Z,59.96
2022-12-08T03:37:26.698Z,59.99
2022-12-08T03:39:53.019Z,60.79
2022-12-08T03:42:19.366Z,60.82
2022-12-08T03:44:45.691Z,61.05
2022-12-08T03:47:12.447Z,60.99
2022-12-08T03:49:39.114Z,61.12
2022-12-08T03:52:05.510Z,61.17
2022-12-08T03:54:31.841Z,61.59
2022-12-08T03:56:58.250Z,61.48
2022-12-08T03:59:24.697Z,61.13
2022-12-08T04:01:51.107Z,61.55
2022-12-08T04:04:17.553Z,62.03
2022-12-08T04:06:43.895Z,61.32
2022-12-08T04:09:12.892Z,61.52
2022-12-08T04:11:39.293Z,61.12
2022-12-08T04:14:05.646Z,60.98
2022-12-08T04:16:32.141Z,60.63
2022-12-08T04:18:58.528Z,60.82
2022-12-08T04:21:25.688Z,60.64
2022-12-08T04:23:56.127Z,60.64
2022-12-08T04:26:25.630Z,61.23
2022-12-08T04:28:52.012Z,61.77
2022-12-08T04:31:18.409Z,61.62
2022-12-08T04:33:45.047Z,62.12
2022-12-08T04:36:11.362Z,62.04
2022-12-08T04:38:37.780Z,61.53
2022-12-08T04:41:04.128Z,61.85
2022-12-08T04:43:30.556Z,61.59
2022-12-08T04:45:56.926Z,62.09
2022-12-08T04:48:23.382Z,62.03
2022-12-08T04:50:49.759Z,61.88
2022-12-08T04:53:16.124Z,61.55
2022-12-08T04:55:42.680Z,61.34
2022-12-08T04:58:09.899Z,60.40
2022-12-08T05:00:36.313Z,59.87
2022-12-08T05:03:02.770Z,59.44
2022-12-08T05:05:29.202Z,59.59
2022-12-08T05:07:55.666Z,60.49
2022-12-08T05:10:22.106Z,59.61
2022-12-08T05:12:48.602Z,60.23
2022-12-08T05:15:14.944Z,60.44
2022-12-08T05:17:41.310Z,60.71
2022-12-08T05:20:07.650Z,61.39
2022-12-08T05:22:33.974Z,61.43
2022-12-08T05:25:00.308Z,62.18
2022-12-08T05:27:26.666Z,62.40
2022-12-08T05:29:53.204Z,62.35
2022-12-08T05:32:19.524Z,62.32
2022-12-08T05:34:45.865Z,61.95
2022-12-08T05:37:12.266Z,61.76
2022-12-08T05:39:38.656Z,62.36
2022-12-08T05:42:05.038Z,62.19
2022-12-08T05:44:31.388Z,61.04
2022-12-08T05:46:57.956Z,60.92
2022-12-08T05:49:24.432Z,61.08
2022-12-08T05:51:50.823Z,60.84
2022-12-08T05:54:17.198Z,61.12
2022-12-08T05:56:43.566Z,60.29
2022-12-08T05:59:09.952Z,60.58
2022-12-08T06:01:36.296Z,60.14
2022-12-08T06:04:02.804Z,59.94
2022-12-08T06:06:29.336Z,59.89
2022-12-08T06:08:55.698Z,60.29
2022-12-08T06:11:22.168Z,60.79
2022-12-08T06:13:48.528Z,61.32
2022-12-08T06:16:17.512Z,61.61
2022-12-08T06:18:44.051Z,61.41
2022-12-08T06:21:10.462Z,61.61
2022-12-08T06:23:37.953Z,61.62
2022-12-08T06:26:06.737Z,61.01
2022-12-08T06:28:33.519Z,61.68
2022-12-08T06:30:59.875Z,61.94
2022-12-08T06:33:29.389Z,62.14
2022-12-08T06:35:55.824Z,62.27
2022-12-08T06:38:22.181Z,61.98
2022-12-08T06:40:48.523Z,61.96
2022-12-08T06:43:15.131Z,62.02
2022-12-08T06:45:41.501Z,61.82
2022-12-08T06:48:07.936Z,61.79
2022-12-08T06:50:34.297Z,61.73
2022-12-08T06:53:05.224Z,61.47
2022-12-08T06:58:20.630Z,61.96
2022-12-08T07:00:48.352Z,62.52
2022-12-08T07:03:14.896Z,62.25
2022-12-08T07:05:41.274Z,62.09
2022-12-08T07:08:08.710Z,61.84
2022-12-08T07:10:35.362Z,62.06
2022-12-08T07:13:01.834Z,61.90
2022-12-08T07:15:28.260Z,61.87
2022-12-08T07:17:59.526Z,61.89
2022-12-08T07:20:26.624Z,61.81
2022-12-08T07:22:53.070Z,62.16
2022-12-08T07:25:19.524Z,61.73
2022-12-08T07:27:45.976Z,61.88
2022-12-08T07:30:12.376Z,61.48
2022-12-08T07:32:38.719Z,62.64
2022-12-08T07:35:12.668Z,62.48
2022-12-08T07:37:43.675Z,61.72
2022-12-08T07:40:10.132Z,61.20
2022-12-08T07:42:36.681Z,60.42
2022-12-08T07:45:03.111Z,59.98
2022-12-08T07:47:31.818Z,60.11
2022-12-08T07:50:01.232Z,59.96
2022-12-08T07:52:27.888Z,60.50
2022-12-08T07:54:54.406Z,60.49
2022-12-08T07:57:20.928Z,61.08
2022-12-08T07:59:47.346Z,61.63
2022-12-08T08:02:24.085Z,61.63
2022-12-08T08:10:12.144Z,61.93
2022-12-08T08:12:38.638Z,62.04
2022-12-08T08:15:04.987Z,61.57
2022-12-08T08:17:40.918Z,61.92
2022-12-08T08:20:13.085Z,62.28
2022-12-08T08:22:39.543Z,62.35
2022-12-08T08:25:07.021Z,61.91
2022-12-08T08:27:33.563Z,63.28
2022-12-08T08:30:00.038Z,64.33
2022-12-08T08:32:26.579Z,62.73
2022-12-08T08:34:53.889Z,62.60
2022-12-08T08:37:20.381Z,62.14
2022-12-08T08:39:46.904Z,61.79
2022-12-08T08:42:13.374Z,61.54
2022-12-08T08:44:39.808Z,61.98
2022-12-08T08:47:08.351Z,61.48
2022-12-08T08:49:34.922Z,62.16
2022-12-08T08:52:01.441Z,62.03
2022-12-08T08:54:27.931Z,61.98
2022-12-08T08:56:54.331Z,62.40
2022-12-08T08:59:20.756Z,62.33
2022-12-08T09:01:47.190Z,62.81
2022-12-08T09:04:13.787Z,62.16
2022-12-08T09:06:40.326Z,61.87
2022-12-08T09:09:09.703Z,61.01
2022-12-08T09:14:29.149Z,60.88
2022-12-08T09:16:55.593Z,61.43
2022-12-08T09:19:22.059Z,61.58
2022-12-08T09:21:48.574Z,62.43
2022-12-08T09:24:15.034Z,62.00
2022-12-08T09:26:41.486Z,62.31
2022-12-08T09:29:08.069Z,61.80
2022-12-08T09:31:34.918Z,61.65
2022-12-08T09:34:02.200Z,61.41
2022-12-08T09:36:38.322Z,60.79
2022-12-08T09:39:04.855Z,59.40
2022-12-08T09:41:36.867Z,59.15
2022-12-08T09:44:05.789Z,59.06
2022-12-08T09:46:33.135Z,59.33
2022-12-08T09:51:50.391Z,59.98
2022-12-08T09:54:17.209Z,59.86
2022-12-08T09:56:43.804Z,59.97
2022-12-08T09:59:10.231Z,58.91
2022-12-08T10:01:36.637Z,58.96
2022-12-08T10:04:03.068Z,58.80
2022-12-08T10:06:29.528Z,58.35
2022-12-08T10:08:58.135Z,57.82
2022-12-08T10:11:25.652Z,57.40
2022-12-08T10:13:52.109Z,57.40
2022-12-08T10:16:24.187Z,56.44
2022-12-08T10:18:54.607Z,57.03
2022-12-08T10:21:21.156Z,56.28
2022-12-08T10:23:47.737Z,56.47
2022-12-08T10:26:14.311Z,56.24
2022-12-08T10:28:44.852Z,56.49
2022-12-08T10:31:19.731Z,56.87
2022-12-08T10:33:51.466Z,57.07
2022-12-08T10:36:18.083Z,56.69
2022-12-08T10:38:44.604Z,57.40
2022-12-08T10:41:11.072Z,57.58
2022-12-08T10:43:41.097Z,57.54
2022-12-08T10:46:07.601Z,57.63
2022-12-08T10:48:34.147Z,57.60
2022-12-08T10:51:00.668Z,57.36
2022-12-08T10:53:27.097Z,57.26
2022-12-08T10:55:53.529Z,57.36
2022-12-08T10:58:19.996Z,57.04
2022-12-08T11:00:46.946Z,57.38
2022-12-08T11:05:54.010Z,57.27
2022-12-08T11:08:20.566Z,57.06
2022-12-08T11:10:47.002Z,57.13
2022-12-08T11:13:13.504Z,56.44
2022-12-08T11:15:39.859Z,56.38
2022-12-08T11:18:06.261Z,56.54
2022-12-08T11:20:32.625Z,56.48
2022-12-08T11:22:58.975Z,56.08
2022-12-08T11:25:25.352Z,56.03
2022-12-08T11:27:53.531Z,55.71
2022-12-08T11:30:34.902Z,56.34
2022-12-08T11:33:01.364Z,55.72
2022-12-08T11:35:27.807Z,56.05
2022-12-08T11:38:03.103Z,55.99
2022-12-08T11:40:41.159Z,55.99
2022-12-08T11:43:07.581Z,56.54
2022-12-08T11:45:34.097Z,56.19
2022-12-08T11:48:00.654Z,54.68
2022-12-08T11:50:27.085Z,55.45
2022-12-08T11:52:54.910Z,55.29
2022-12-08T11:55:21.396Z,52.86
2022-12-08T11:57:47.900Z,54.05
2022-12-08T12:00:14.493Z,53.84
2022-12-08T12:02:40.999Z,53.46
2022-12-08T12:05:07.499Z,51.78
2022-12-08T12:07:34.131Z,52.36
2022-12-08T12:10:00.604Z,52.03
2022-12-08T12:12:27.041Z,52.89
2022-12-08T12:14:53.526Z,52.55
2022-12-08T12:17:20.023Z,52.63
2022-12-08T12:19:46.405Z,53.11
2022-12-08T12:22:12.980Z,52.98
2022-12-08T12:24:39.426Z,53.41
2022-12-08T12:27:05.819Z,53.83
2022-12-08T12:29:32.197Z,53.19
2022-12-08T12:31:58.598Z,54.01
2022-12-08T12:34:24.990Z,53.44
2022-12-08T12:36:51.585Z,53.10
2022-12-08T12:39:18.021Z,52.64
2022-12-08T12:41:44.777Z,52.25
2022-12-08T12:44:11.389Z,52.67
2022-12-08T12:46:37.840Z,52.85
2022-12-08T12:49:06.429Z,53.24
2022-12-08T12:51:32.860Z,52.45
2022-12-08T12:54:03.790Z,53.03
2022-12-08T12:56:30.908Z,52.81
2022-12-08T12:58:57.269Z,53.30
2022-12-08T13:04:04.062Z,53.35
2022-12-08T13:09:21.093Z,51.91
2022-12-08T13:11:50.604Z,52.00
2022-12-08T13:14:17.028Z,52.47
2022-12-08T13:16:43.587Z,52.76
2022-12-08T13:21:50.265Z,52.40
2022-12-08T13:24:16.781Z,51.95
2022-12-08T13:26:43.145Z,52.75
2022-12-08T13:29:09.583Z,53.32
2022-12-08T13:34:16.304Z,52.35
2022-12-08T13:36:50.637Z,52.83
2022-12-08T13:39:17.028Z,53.21
2022-12-08T13:41:43.476Z,53.63
2022-12-08T13:45:03.641Z,52.69
2022-12-08T13:47:32.135Z,51.87
2022-12-08T13:58:02.524Z,52.21
2022-12-08T14:00:31.650Z,51.87
2022-12-08T14:03:07.530Z,51.60
2022-12-08T14:06:09.899Z,51.13
2022-12-08T14:08:36.369Z,50.86
2022-12-08T14:11:11.114Z,51.71
2022-12-08T14:13:37.550Z,51.85
2022-12-08T14:16:03.984Z,51.78
2022-12-08T14:18:30.502Z,51.16
2022-12-08T14:21:19.940Z,52.17
2022-12-08T14:23:43.346Z,51.60
2022-12-08T14:26:09.772Z,51.70
2022-12-08T14:28:41.475Z,51.32
2022-12-08T14:31:10.967Z,51.00
2022-12-08T14:33:37.682Z,51.73
2022-12-08T14:36:04.105Z,52.31
2022-12-08T14:38:30.663Z,51.12
2022-12-08T14:43:37.348Z,51.72
2022-12-08T14:46:03.806Z,52.51
2022-12-08T14:48:30.167Z,52.28
2022-12-08T14:50:56.553Z,52.16
2022-12-08T14:53:22.967Z,52.15
2022-12-08T14:55:49.536Z,52.99
2022-12-08T14:58:16.778Z,52.59
2022-12-08T15:00:43.199Z,53.45
2022-12-08T15:03:09.694Z,53.86
2022-12-08T15:05:36.170Z,53.94
2022-12-08T15:08:02.654Z,54.40
2022-12-08T15:10:29.193Z,55.03
2022-12-08T15:12:55.666Z,55.34
2022-12-08T15:15:25.025Z,55.68
2022-12-08T15:17:51.420Z,56.56
2022-12-08T15:20:18.036Z,56.55
2022-12-08T15:22:44.415Z,57.18
2022-12-08T15:25:10.902Z,57.03
2022-12-08T15:27:49.588Z,57.09
2022-12-08T15:30:16.795Z,56.66
2022-12-08T15:32:43.153Z,57.01
2022-12-08T15:35:09.565Z,56.61
2022-12-08T15:37:36.000Z,56.29
2022-12-08T15:40:02.818Z,56.29
2022-12-08T15:42:31.096Z,56.61
2022-12-08T15:47:37.802Z,56.88
2022-12-08T15:50:04.596Z,56.02
2022-12-08T15:52:33.317Z,55.97
2022-12-08T15:54:59.695Z,55.63
2022-12-08T15:57:53.402Z,55.73
2022-12-08T16:00:36.348Z,55.64
2022-12-08T16:03:27.632Z,55.04
2022-12-08T16:06:10.278Z,54.99
2022-12-08T16:08:56.227Z,55.97
2022-12-08T16:12:04.401Z,54.92
2022-12-08T16:14:47.119Z,55.18
2022-12-08T16:16:53.866Z,56.10
2022-12-08T16:19:36.371Z,56.01
2022-12-08T16:22:51.262Z,56.24
2022-12-08T16:24:51.708Z,55.99
2022-12-08T16:30:04.558Z,56.20
2022-12-08T16:35:21.630Z,56.33
2022-12-08T16:37:49.593Z,56.61
2022-12-08T16:40:17.907Z,55.99
2022-12-08T16:42:51.410Z,56.41
2022-12-08T16:45:17.965Z,57.74
2022-12-08T16:47:44.491Z,57.38
2022-12-08T16:50:10.944Z,56.91
2022-12-08T16:52:37.421Z,57.54
2022-12-08T16:55:04.108Z,57.45
2022-12-08T16:57:30.852Z,57.93
2022-12-08T16:59:58.224Z,57.36
2022-12-08T17:02:24.647Z,57.33
2022-12-08T17:04:51.227Z,57.28
2022-12-08T17:07:21.724Z,57.48
2022-12-08T17:09:48.146Z,56.65
2022-12-08T17:12:14.507Z,56.47
2022-12-08T17:14:40.914Z,56.58
2022-12-08T17:17:07.331Z,56.49
2022-12-08T17:19:33.781Z,56.25
2022-12-08T17:22:00.265Z,56.69
2022-12-08T17:24:26.717Z,57.09
2022-12-08T17:26:53.167Z,56.93
2022-12-08T17:29:19.615Z,56.05
2022-12-08T17:31:46.095Z,55.90
2022-12-08T17:34:12.897Z,56.19
2022-12-08T17:36:39.737Z,56.20
2022-12-08T17:39:06.125Z,56.34
2022-12-08T17:41:37.409Z,55.82
2022-12-08T17:44:03.778Z,56.22
2022-12-08T17:46:30.214Z,55.30
2022-12-08T17:48:58.225Z,55.95
2022-12-08T17:51:24.699Z,56.49
2022-12-08T17:53:51.203Z,57.21
2022-12-08T17:56:17.649Z,56.88
2022-12-08T17:58:52.639Z,56.75
2022-12-08T18:01:20.589Z,56.64
2022-12-08T18:03:47.086Z,57.19
2022-12-08T18:06:13.494Z,57.27
2022-12-08T18:08:39.946Z,56.68
2022-12-08T18:11:06.324Z,57.42
2022-12-08T18:13:32.782Z,56.93
2022-12-08T18:15:59.187Z,57.65
2022-12-08T18:18:25.586Z,57.46
2022-12-08T18:20:51.979Z,57.51
2022-12-08T18:23:18.476Z,57.59
2022-12-08T18:25:44.904Z,57.31
2022-12-08T18:28:11.239Z,57.60
2022-12-08T18:30:37.659Z,57.42
2022-12-08T18:33:04.208Z,57.64
2022-12-08T18:35:30.638Z,58.33
2022-12-08T18:37:57.068Z,58.14
2022-12-08T18:40:23.482Z,58.36
2022-12-08T18:42:50.156Z,58.89
2022-12-08T18:45:22.062Z,59.21
2022-12-08T18:47:48.676Z,59.28
2022-12-08T18:50:15.080Z,58.97
2022-12-08T18:52:41.437Z,58.73
2022-12-08T18:55:08.047Z,58.79
2022-12-08T18:57:34.615Z,58.50
2022-12-08T19:00:00.977Z,58.26
2022-12-08T19:02:27.571Z,57.36
2022-12-08T19:04:53.984Z,56.40
2022-12-08T19:07:20.352Z,56.61
2022-12-08T19:09:46.704Z,56.09
2022-12-08T19:12:13.099Z,56.05
2022-12-08T19:14:39.458Z,56.12
2022-12-08T19:17:05.810Z,55.27
2022-12-08T19:19:32.255Z,54.74
2022-12-08T19:21:58.694Z,55.38
2022-12-08T19:24:25.049Z,55.10
2022-12-08T19:26:51.472Z,54.92
2022-12-08T19:29:17.908Z,55.45
2022-12-08T19:31:44.412Z,55.43
2022-12-08T19:34:10.862Z,56.12
2022-12-08T19:36:37.202Z,56.40
2022-12-08T19:39:03.606Z,57.00
2022-12-08T19:41:32.695Z,57.10
2022-12-08T19:43:59.111Z,57.21
2022-12-08T19:46:25.604Z,57.27
2022-12-08T19:48:54.248Z,56.80
2022-12-08T19:51:20.619Z,56.33
2022-12-08T19:53:47.960Z,56.66
2022-12-08T19:56:14.507Z,55.89
2022-12-08T19:58:40.876Z,55.58
2022-12-08T20:01:07.270Z,55.77
2022-12-08T20:03:33.733Z,55.73
2022-12-08T20:06:00.144Z,55.44
2022-12-08T20:08:26.612Z,55.48
2022-12-08T20:10:53.163Z,55.40
2022-12-08T20:13:19.582Z,55.33
2022-12-08T20:15:46.045Z,54.86
2022-12-08T20:18:12.569Z,54.54
2022-12-08T20:20:38.917Z,55.78
2022-12-08T20:23:05.311Z,55.39
2022-12-08T20:25:31.709Z,56.13
2022-12-08T20:27:58.047Z,56.28
2022-12-08T20:30:24.497Z,56.24
2022-12-08T20:32:50.845Z,56.70
2022-12-08T20:35:17.234Z,56.96
2022-12-08T20:37:43.759Z,57.67
2022-12-08T20:40:10.194Z,57.59
2022-12-08T20:42:36.593Z,57.37
2022-12-08T20:45:03.195Z,58.27
2022-12-08T20:47:31.724Z,58.49
2022-12-08T20:49:58.298Z,57.69
2022-12-08T20:52:24.656Z,57.29
2022-12-08T20:54:51.422Z,57.86
2022-12-08T20:57:18.249Z,57.94
2022-12-08T20:59:44.743Z,57.96
2022-12-08T21:02:11.820Z,57.93
2022-12-08T21:04:38.579Z,57.55
2022-12-08T21:07:05.178Z,57.87
2022-12-08T21:09:31.774Z,58.12
2022-12-08T21:11:58.292Z,58.03
2022-12-08T21:14:24.910Z,57.85
2022-12-08T21:16:53.681Z,56.86
2022-12-08T21:19:20.823Z,57.09
2022-12-08T21:21:47.587Z,57.12
2022-12-08T21:24:14.373Z,56.97
2022-12-08T21:26:41.007Z,57.55
2022-12-08T21:29:07.479Z,57.59
2022-12-08T21:31:34.189Z,57.70
2022-12-08T21:34:00.915Z,57.79
2022-12-08T21:36:27.465Z,57.75
2022-12-08T21:38:53.983Z,57.68
2022-12-08T21:41:20.489Z,57.78
2022-12-08T21:43:47.020Z,57.41
2022-12-08T21:46:13.470Z,57.43
2022-12-08T21:48:40.203Z,55.64
2022-12-08T21:51:06.964Z,55.85
2022-12-08T21:53:33.355Z,55.28
2022-12-08T21:55:59.876Z,54.73
2022-12-08T21:58:26.411Z,54.78
2022-12-08T22:00:53.031Z,54.48
2022-12-08T22:03:37.218Z,54.42
2022-12-08T22:06:04.156Z,54.54
2022-12-08T22:08:30.612Z,54.10
2022-12-08T22:10:57.317Z,53.66
2022-12-08T22:13:23.686Z,54.47
2022-12-08T22:15:50.603Z,54.41
2022-12-08T22:18:17.245Z,55.03
2022-12-08T22:20:44.551Z,55.26
2022-12-08T22:23:11.089Z,54.39
2022-12-08T22:25:37.762Z,54.63
2022-12-08T22:28:04.396Z,54.56
2022-12-08T22:30:35.588Z,54.43
2022-12-08T22:33:05.159Z,54.74
2022-12-08T22:35:31.672Z,56.02
2022-12-08T22:37:58.013Z,56.73
2022-12-08T22:40:25.186Z,55.82
2022-12-08T22:42:51.759Z,55.65
2022-12-08T22:45:18.980Z,55.69
2022-12-08T22:47:45.348Z,55.90
2022-12-08T22:50:12.060Z,54.85
2022-12-08T22:52:38.643Z,53.74
2022-12-08T22:55:05.070Z,53.22
2022-12-08T22:57:31.457Z,53.97
2022-12-08T22:59:57.822Z,54.37
2022-12-08T23:02:24.238Z,53.86
2022-12-08T23:04:50.695Z,55.13
2022-12-08T23:07:17.398Z,55.60
2022-12-08T23:09:43.795Z,55.40
2022-12-08T23:12:10.235Z,56.03
2022-12-08T23:14:36.640Z,55.68
2022-12-08T23:17:03.113Z,55.43
2022-12-08T23:19:29.632Z,54.78
2022-12-08T23:21:56.188Z,54.63
2022-12-08T23:24:22.613Z,54.66
2022-12-08T23:26:48.959Z,54.85
2022-12-08T23:29:15.461Z,55.77
2022-12-08T23:31:42.082Z,55.53
2022-12-08T23:34:08.735Z,55.79
2022-12-08T23:36:35.188Z,54.27
2022-12-08T23:39:01.547Z,54.75
2022-12-08T23:41:28.096Z,54.35
2022-12-08T23:43:54.545Z,55.19
2022-12-08T23:46:21.274Z,55.35
2022-12-08T23:48:47.701Z,55.49
2022-12-08T23:51:14.531Z,55.10
2022-12-08T23:53:41.129Z,56.02
2022-12-08T23:56:07.697Z,55.41
2022-12-08T23:58:34.105Z,55.12
